createdAt,value
2023-01-26T00:01:46.679Z,61.96
2023-01-26T00:04:53.012Z,65.55
2023-01-26T00:07:59.266Z,66.43
2023-01-26T00:11:05.783Z,66.26
2023-01-26T00:14:11.802Z,65.65
2023-01-26T00:17:26.376Z,65.61
2023-01-26T00:20:33.017Z,65.47
2023-01-26T00:23:39.265Z,64.95
2023-01-26T00:26:45.437Z,63.87
2023-01-26T00:29:51.658Z,63.49
2023-01-26T00:32:57.915Z,62.00
2023-01-26T00:36:02.511Z,62.23
2023-01-26T00:39:08.832Z,61.66
2023-01-26T00:42:15.906Z,61.63
2023-01-26T00:45:21.972Z,61.80
2023-01-26T00:48:28.173Z,61.58
2023-01-26T00:51:34.354Z,61.46
2023-01-26T00:54:40.643Z,61.84
2023-01-26T00:57:45.114Z,62.13
2023-01-26T01:00:51.088Z,62.28
2023-01-26T01:03:57.389Z,62.08
2023-01-26T01:07:01.877Z,61.68
2023-01-26T01:10:10.088Z,61.55
2023-01-26T01:13:16.653Z,61.15
2023-01-26T01:16:21.362Z,60.48
2023-01-26T01:19:27.927Z,60.33
2023-01-26T01:22:34.199Z,60.23
2023-01-26T01:25:38.745Z,60.34
2023-01-26T01:28:45.204Z,59.92
2023-01-26T01:31:51.622Z,57.94
2023-01-26T01:34:57.976Z,58.15
2023-01-26T01:38:02.438Z,59.00
2023-01-26T01:41:09.257Z,59.62
2023-01-26T01:44:18.964Z,63.19
2023-01-26T01:47:27.962Z,65.42
2023-01-26T01:50:39.084Z,64.61
2023-01-26T01:53:49.598Z,63.85
2023-01-26T01:56:59.063Z,63.28
2023-01-26T02:00:10.649Z,62.97
2023-01-26T02:03:21.254Z,63.12
2023-01-26T02:06:31.258Z,63.50
2023-01-26T02:09:57.494Z,63.10
2023-01-26T02:13:06.538Z,62.52
2023-01-26T02:16:13.452Z,62.16
2023-01-26T02:19:23.823Z,62.02
2023-01-26T02:22:40.015Z,61.73
2023-01-26T02:25:53.060Z,61.34
2023-01-26T02:28:59.483Z,60.93
2023-01-26T02:32:06.219Z,60.82
2023-01-26T02:35:12.816Z,59.32
2023-01-26T02:38:20.479Z,58.01
2023-01-26T02:41:44.116Z,59.42
2023-01-26T02:44:50.432Z,60.51
2023-01-26T02:47:54.836Z,61.30
2023-01-26T02:51:01.066Z,60.75
2023-01-26T02:54:07.850Z,64.28
2023-01-26T02:57:14.168Z,65.99
2023-01-26T03:00:19.185Z,64.96
2023-01-26T03:03:41.990Z,64.61
2023-01-26T03:06:48.428Z,63.47
2023-01-26T03:09:54.677Z,63.19
2023-01-26T03:12:58.959Z,62.47
2023-01-26T03:16:07.947Z,62.11
2023-01-26T03:19:33.791Z,61.42
2023-01-26T03:23:08.987Z,60.58
2023-01-26T03:26:32.784Z,60.49
2023-01-26T03:29:39.072Z,60.66
2023-01-26T03:32:43.584Z,60.55
2023-01-26T03:35:50.355Z,60.46
2023-01-26T03:38:56.536Z,60.82
2023-01-26T03:42:20.395Z,58.50
2023-01-26T03:45:44.136Z,57.37
2023-01-26T03:49:07.855Z,57.84
2023-01-26T03:52:31.488Z,59.17
2023-01-26T03:55:54.906Z,60.28
2023-01-26T03:59:08.319Z,64.49
2023-01-26T04:02:32.724Z,66.34
2023-01-26T04:05:56.603Z,65.57
2023-01-26T04:09:23.179Z,64.25
2023-01-26T04:12:29.282Z,63.06
2023-01-26T04:15:54.517Z,62.33
2023-01-26T04:19:18.291Z,62.28
2023-01-26T04:22:24.582Z,62.15
2023-01-26T04:25:29.107Z,61.87
2023-01-26T04:28:36.029Z,60.06
2023-01-26T04:31:43.292Z,60.00
2023-01-26T04:34:49.482Z,60.42
2023-01-26T04:37:55.684Z,60.23
2023-01-26T04:41:02.059Z,60.28
2023-01-26T04:44:06.835Z,59.79
2023-01-26T04:47:13.091Z,60.12
2023-01-26T04:50:17.849Z,59.88
2023-01-26T04:53:24.478Z,59.89
2023-01-26T04:56:33.131Z,59.96
2023-01-26T04:59:39.375Z,59.61
2023-01-26T05:02:45.707Z,58.17
2023-01-26T05:05:51.559Z,58.36
2023-01-26T05:08:56.109Z,58.74
2023-01-26T05:12:22.423Z,59.46
2023-01-26T05:15:28.995Z,61.15
2023-01-26T05:18:35.235Z,64.38
2023-01-26T05:21:41.604Z,65.97
2023-01-26T05:24:47.907Z,65.79
2023-01-26T05:27:52.900Z,64.34
2023-01-26T05:30:59.890Z,63.24
2023-01-26T05:34:06.298Z,61.83
2023-01-26T05:37:14.638Z,61.92
2023-01-26T05:40:22.105Z,61.95
2023-01-26T05:43:28.401Z,61.64
2023-01-26T05:46:32.842Z,61.97
2023-01-26T05:49:42.951Z,61.97
2023-01-26T05:52:50.023Z,61.11
2023-01-26T05:55:56.081Z,60.48
2023-01-26T05:59:02.354Z,60.19
2023-01-26T06:02:07.300Z,60.29
2023-01-26T06:05:13.858Z,60.80
2023-01-26T06:08:20.124Z,60.90
2023-01-26T06:11:26.185Z,60.95
2023-01-26T06:14:32.488Z,61.53
2023-01-26T06:17:36.993Z,60.83
2023-01-26T06:20:44.352Z,60.08
2023-01-26T06:23:50.728Z,58.51
2023-01-26T06:26:56.933Z,58.78
2023-01-26T06:30:03.180Z,60.45
2023-01-26T06:33:08.098Z,61.19
2023-01-26T06:36:16.302Z,61.39
2023-01-26T06:39:22.602Z,64.70
2023-01-26T06:42:27.145Z,66.54
2023-01-26T06:45:33.116Z,66.33
2023-01-26T06:48:39.355Z,65.08
2023-01-26T06:51:46.128Z,64.40
2023-01-26T06:54:55.277Z,63.98
2023-01-26T06:58:01.585Z,62.94
2023-01-26T07:01:06.570Z,62.12
2023-01-26T07:04:12.826Z,62.02
2023-01-26T07:07:19.185Z,62.28
2023-01-26T07:10:23.920Z,62.29
2023-01-26T07:13:30.252Z,62.23
2023-01-26T07:16:34.923Z,62.44
2023-01-26T07:19:41.146Z,62.25
2023-01-26T07:22:47.468Z,61.55
2023-01-26T07:25:51.927Z,61.45
2023-01-26T07:28:57.928Z,62.03
2023-01-26T07:32:04.655Z,60.84
2023-01-26T07:35:11.777Z,60.22
2023-01-26T07:38:18.588Z,59.81
2023-01-26T07:41:24.798Z,59.76
2023-01-26T07:44:31.000Z,60.07
2023-01-26T07:47:37.649Z,60.19
2023-01-26T07:50:45.400Z,59.98
2023-01-26T07:53:51.663Z,59.56
2023-01-26T07:56:56.382Z,57.78
2023-01-26T08:00:04.202Z,57.56
2023-01-26T08:03:10.408Z,59.49
2023-01-26T08:06:17.456Z,61.24
2023-01-26T08:09:24.837Z,63.25
2023-01-26T08:12:31.040Z,64.77
2023-01-26T08:15:37.347Z,63.94
2023-01-26T08:18:42.372Z,62.96
2023-01-26T08:21:48.581Z,62.84
2023-01-26T08:24:54.826Z,62.28
2023-01-26T08:27:59.244Z,62.23
2023-01-26T08:31:11.607Z,61.35
2023-01-26T08:34:18.059Z,60.50
2023-01-26T08:37:22.532Z,60.55
2023-01-26T08:40:28.940Z,60.78
2023-01-26T08:43:35.700Z,60.09
2023-01-26T08:46:42.013Z,59.88
2023-01-26T08:49:46.234Z,60.25
2023-01-26T08:52:52.483Z,60.42
2023-01-26T08:55:56.719Z,59.80
2023-01-26T08:59:03.225Z,60.06
2023-01-26T09:02:10.120Z,59.30
2023-01-26T09:05:16.416Z,57.63
2023-01-26T09:08:23.513Z,58.20
2023-01-26T09:11:29.527Z,58.67
2023-01-26T09:14:35.921Z,59.61
2023-01-26T09:17:41.994Z,60.77
2023-01-26T09:20:48.116Z,60.51
2023-01-26T09:23:54.523Z,64.72
2023-01-26T09:26:58.832Z,65.63
2023-01-26T09:30:06.657Z,65.12
2023-01-26T09:33:12.963Z,64.23
2023-01-26T09:36:19.656Z,62.86
2023-01-26T09:39:25.883Z,62.28
2023-01-26T09:42:44.062Z,62.38
2023-01-26T09:46:02.140Z,62.26
2023-01-26T09:49:11.797Z,61.22
2023-01-26T09:52:25.323Z,60.89
2023-01-26T09:55:31.892Z,60.38
2023-01-26T09:58:40.736Z,60.03
2023-01-26T10:01:54.426Z,59.75
2023-01-26T10:05:06.690Z,58.31
2023-01-26T10:08:16.255Z,57.20
2023-01-26T10:11:27.602Z,58.34
2023-01-26T10:14:40.636Z,59.64
2023-01-26T10:17:48.423Z,63.17
2023-01-26T10:20:57.915Z,63.43
2023-01-26T10:24:05.825Z,62.08
2023-01-26T10:27:15.214Z,61.47
2023-01-26T10:30:22.956Z,61.03
2023-01-26T10:33:33.791Z,60.99
2023-01-26T10:36:41.833Z,60.48
2023-01-26T10:40:00.869Z,59.35
2023-01-26T10:43:06.946Z,57.76
2023-01-26T10:46:27.990Z,58.62
2023-01-26T10:49:34.376Z,59.94
2023-01-26T10:52:39.149Z,63.28
2023-01-26T10:55:55.293Z,64.33
2023-01-26T10:59:03.400Z,63.75
2023-01-26T11:02:24.355Z,63.47
2023-01-26T11:05:31.152Z,62.66
2023-01-26T11:08:39.857Z,62.56
2023-01-26T11:11:58.929Z,62.07
2023-01-26T11:15:07.297Z,61.49
2023-01-26T11:18:29.864Z,60.72
2023-01-26T11:21:42.209Z,58.06
2023-01-26T11:24:57.387Z,57.60
2023-01-26T11:28:18.425Z,58.83
2023-01-26T11:31:33.727Z,60.40
2023-01-26T11:34:48.398Z,63.19
2023-01-26T11:38:03.980Z,64.68
2023-01-26T11:41:28.339Z,63.85
2023-01-26T11:45:02.011Z,62.74
2023-01-26T11:48:22.243Z,61.73
2023-01-26T11:51:39.374Z,61.36
2023-01-26T11:55:05.374Z,60.98
2023-01-26T11:58:25.939Z,60.62
2023-01-26T12:01:37.218Z,60.38
2023-01-26T12:04:48.157Z,60.03
2023-01-26T12:08:01.092Z,59.88
2023-01-26T12:11:26.058Z,60.16
2023-01-26T12:14:37.308Z,60.03
2023-01-26T12:17:52.083Z,58.31
2023-01-26T12:21:05.359Z,57.66
2023-01-26T12:24:43.412Z,59.07
2023-01-26T12:27:50.680Z,60.02
2023-01-26T12:31:04.578Z,62.83
2023-01-26T12:34:15.275Z,64.24
2023-01-26T12:37:51.842Z,64.21
2023-01-26T12:41:11.877Z,62.96
2023-01-26T12:44:34.089Z,61.82
2023-01-26T12:47:45.382Z,60.59
2023-01-26T12:50:55.797Z,60.86
2023-01-26T12:54:06.261Z,60.79
2023-01-26T12:57:17.444Z,59.82
2023-01-26T13:00:27.583Z,60.11
2023-01-26T13:03:38.629Z,59.87
2023-01-26T13:06:44.955Z,57.93
2023-01-26T13:10:09.384Z,58.14
2023-01-26T13:13:33.796Z,58.41
2023-01-26T13:16:40.041Z,60.09
2023-01-26T13:20:00.145Z,62.59
2023-01-26T13:23:29.439Z,64.31
2023-01-26T13:26:52.831Z,63.63
2023-01-26T13:29:59.023Z,61.61
2023-01-26T13:33:22.749Z,61.03
2023-01-26T13:36:34.131Z,61.21
2023-01-26T13:39:42.993Z,61.19
2023-01-26T13:42:58.072Z,61.14
2023-01-26T13:46:20.206Z,59.32
2023-01-26T13:49:38.440Z,57.16
2023-01-26T13:52:45.903Z,58.03
2023-01-26T13:55:57.934Z,59.19
2023-01-26T13:59:13.724Z,60.15
2023-01-26T14:02:27.591Z,63.07
2023-01-26T14:05:35.663Z,64.05
2023-01-26T14:08:44.371Z,63.53
2023-01-26T14:11:59.848Z,63.12
2023-01-26T14:15:09.052Z,61.27
2023-01-26T14:18:23.691Z,60.60
2023-01-26T14:21:29.727Z,59.85
2023-01-26T14:24:39.829Z,59.64
2023-01-26T14:27:46.156Z,58.93
2023-01-26T14:30:53.990Z,57.41
2023-01-26T14:34:01.152Z,57.78
2023-01-26T14:37:15.861Z,59.68
2023-01-26T14:40:26.456Z,60.48
2023-01-26T14:43:32.426Z,63.33
2023-01-26T14:46:44.880Z,65.02
2023-01-26T14:49:56.465Z,64.70
2023-01-26T14:53:04.600Z,63.59
2023-01-26T14:56:20.990Z,62.85
2023-01-26T14:59:34.428Z,62.21
2023-01-26T15:02:44.639Z,62.75
2023-01-26T15:05:50.744Z,62.24
2023-01-26T15:09:03.013Z,61.85
2023-01-26T15:12:19.395Z,61.59
2023-01-26T15:15:28.553Z,60.73
2023-01-26T15:18:35.455Z,60.09
2023-01-26T15:21:44.345Z,60.22
2023-01-26T15:25:02.526Z,60.21
2023-01-26T15:28:14.644Z,60.10
2023-01-26T15:31:26.657Z,60.04
2023-01-26T15:34:40.461Z,59.90
2023-01-26T15:37:46.807Z,60.21
2023-01-26T15:40:51.287Z,59.72
2023-01-26T15:43:57.298Z,59.79
2023-01-26T15:47:03.309Z,58.44
2023-01-26T15:50:18.960Z,57.68
2023-01-26T15:53:32.282Z,58.33
2023-01-26T15:56:38.266Z,59.73
2023-01-26T15:59:44.288Z,60.91
2023-01-26T16:02:50.467Z,63.94
2023-01-26T16:05:56.559Z,66.14
2023-01-26T16:09:02.902Z,65.47
2023-01-26T16:12:30.550Z,64.56
2023-01-26T16:15:43.543Z,63.67
2023-01-26T16:18:49.819Z,63.34
2023-01-26T16:21:55.782Z,63.48
2023-01-26T16:25:02.076Z,63.17
2023-01-26T16:28:06.495Z,62.71
2023-01-26T16:31:23.360Z,62.47
2023-01-26T16:34:29.582Z,62.45
2023-01-26T16:37:35.880Z,62.49
2023-01-26T16:40:40.842Z,62.07
2023-01-26T16:43:47.104Z,62.12
2023-01-26T16:46:53.372Z,61.68
2023-01-26T16:49:57.926Z,61.33
2023-01-26T16:53:27.450Z,61.53
2023-01-26T16:56:33.632Z,61.73
2023-01-26T16:59:40.233Z,61.82
2023-01-26T17:02:49.124Z,62.07
2023-01-26T17:05:55.978Z,62.11
2023-01-26T17:09:02.274Z,62.34
2023-01-26T17:12:07.666Z,62.44
2023-01-26T17:15:15.389Z,62.74
2023-01-26T17:18:21.491Z,62.62
2023-01-26T17:21:28.031Z,62.17
2023-01-26T17:24:34.477Z,61.89
2023-01-26T17:27:41.026Z,62.01
2023-01-26T17:30:47.408Z,62.05
2023-01-26T17:33:52.211Z,61.91
2023-01-26T17:36:58.871Z,62.15
2023-01-26T17:40:05.317Z,62.27
2023-01-26T17:43:11.552Z,62.42
2023-01-26T17:46:19.458Z,62.55
2023-01-26T17:49:25.664Z,62.73
2023-01-26T17:52:35.425Z,62.35
2023-01-26T17:55:41.672Z,62.14
2023-01-26T17:58:50.917Z,62.10
2023-01-26T18:01:57.042Z,62.17
2023-01-26T18:05:03.289Z,62.17
2023-01-26T18:08:07.691Z,62.31
2023-01-26T18:11:16.197Z,62.47
2023-01-26T18:14:22.441Z,62.32
2023-01-26T18:17:28.890Z,62.66
2023-01-26T18:20:35.341Z,62.75
2023-01-26T18:23:41.580Z,62.98
2023-01-26T18:26:47.774Z,63.13
2023-01-26T18:29:54.063Z,63.23
2023-01-26T18:32:58.690Z,63.14
2023-01-26T18:36:09.545Z,63.77
2023-01-26T18:39:17.499Z,63.87
2023-01-26T18:42:23.811Z,64.00
2023-01-26T18:45:28.115Z,64.40
2023-01-26T18:48:35.129Z,64.55
2023-01-26T18:51:46.195Z,64.80
2023-01-26T18:54:52.721Z,65.03
2023-01-26T18:57:58.936Z,65.26
2023-01-26T19:01:09.599Z,65.35
2023-01-26T19:04:18.140Z,65.13
2023-01-26T19:07:24.597Z,64.82
2023-01-26T19:10:30.663Z,64.53
2023-01-26T19:13:42.081Z,64.58
2023-01-26T19:16:49.225Z,64.72
2023-01-26T19:19:55.555Z,65.01
2023-01-26T19:23:01.908Z,65.73
2023-01-26T19:26:14.522Z,65.45
2023-01-26T19:29:21.098Z,65.23
2023-01-26T19:32:27.389Z,65.25
2023-01-26T19:35:32.024Z,65.05
2023-01-26T19:38:40.547Z,64.96
2023-01-26T19:41:46.924Z,64.87
2023-01-26T19:44:51.385Z,64.50
2023-01-26T19:47:57.687Z,64.54
2023-01-26T19:51:03.476Z,64.25
2023-01-26T19:54:10.044Z,64.36
2023-01-26T19:57:16.155Z,64.09
2023-01-26T20:00:23.751Z,64.15
2023-01-26T20:03:29.900Z,64.05
2023-01-26T20:06:37.381Z,63.65
2023-01-26T20:09:43.499Z,63.56
2023-01-26T20:12:49.723Z,63.49
2023-01-26T20:15:58.276Z,63.32
2023-01-26T20:19:05.298Z,63.19
2023-01-26T20:22:12.082Z,63.03
2023-01-26T20:25:18.168Z,62.99
2023-01-26T20:28:24.477Z,63.24
2023-01-26T20:31:29.786Z,63.28
2023-01-26T20:34:36.045Z,63.10
2023-01-26T20:37:42.612Z,62.78
2023-01-26T20:40:48.895Z,62.78
2023-01-26T20:44:02.320Z,63.07
2023-01-26T20:47:08.803Z,63.25
2023-01-26T20:50:15.368Z,63.08
2023-01-26T20:53:22.071Z,63.14
2023-01-26T20:56:28.341Z,63.20
2023-01-26T20:59:32.950Z,63.45
2023-01-26T21:02:39.291Z,63.92
2023-01-26T21:05:43.824Z,63.80
2023-01-26T21:08:52.464Z,63.97
2023-01-26T21:11:58.461Z,64.00
2023-01-26T21:15:04.688Z,64.02
2023-01-26T21:18:10.916Z,63.93
2023-01-26T21:21:17.700Z,64.28
2023-01-26T21:24:24.151Z,64.55
2023-01-26T21:27:28.829Z,64.91
2023-01-26T21:30:35.015Z,65.07
2023-01-26T21:33:43.265Z,64.91
2023-01-26T21:36:49.719Z,65.14
2023-01-26T21:39:54.144Z,65.57
2023-01-26T21:43:00.341Z,65.68
2023-01-26T21:46:06.978Z,65.08
2023-01-26T21:49:15.757Z,64.76
2023-01-26T21:52:39.230Z,64.57
2023-01-26T21:55:47.191Z,64.41
2023-01-26T21:58:57.750Z,64.39
2023-01-26T22:02:03.729Z,64.42
2023-01-26T22:05:11.104Z,64.13
2023-01-26T22:08:17.499Z,63.82
2023-01-26T22:11:23.951Z,63.88
2023-01-26T22:14:30.401Z,63.79
2023-01-26T22:17:36.451Z,64.07
2023-01-26T22:20:42.917Z,64.23
2023-01-26T22:23:50.113Z,64.05
2023-01-26T22:26:56.612Z,64.01
2023-01-26T22:30:02.855Z,63.85
2023-01-26T22:33:09.305Z,63.67
2023-01-26T22:36:15.871Z,63.55
2023-01-26T22:39:22.407Z,63.67
2023-01-26T22:42:28.821Z,63.78
2023-01-26T22:45:33.172Z,63.89
2023-01-26T22:48:39.658Z,64.15
2023-01-26T22:51:45.770Z,63.86
2023-01-26T22:54:52.053Z,63.86
2023-01-26T22:57:56.676Z,63.71
2023-01-26T23:01:10.286Z,63.96
2023-01-26T23:04:16.694Z,63.92
2023-01-26T23:07:21.390Z,64.24
2023-01-26T23:10:28.485Z,64.61
2023-01-26T23:13:35.753Z,64.23
2023-01-26T23:16:42.361Z,64.19
2023-01-26T23:19:48.960Z,64.27
2023-01-26T23:22:55.322Z,64.62
2023-01-26T23:26:00.691Z,65.06
2023-01-26T23:29:07.037Z,65.32
2023-01-26T23:32:12.042Z,65.08
2023-01-26T23:35:18.719Z,65.02
2023-01-26T23:38:26.480Z,64.78
2023-01-26T23:41:33.400Z,64.92
2023-01-26T23:44:39.798Z,64.95
2023-01-26T23:47:46.260Z,64.74
2023-01-26T23:50:55.838Z,64.59
2023-01-26T23:54:02.248Z,64.37
2023-01-26T23:57:08.681Z,64.33
